Airfield :
LOGIN :

Register | Disclaimer

   EN    FR    IT 

 










Legend :    VFR   Marginal VFR   IFR   Intensive IFR   Very Intensive IFR
Visi :
Ceiling :
>= 8 km
>= 3000ft
5 to 8 km
1000 to 3000 ft
1500m to 5 km
500 to 1000 ft
800 to 1500m
200 to 500 ft
< 800m
< 200 ft
Symbols :   Thunderstorms  Fog  Heavy snow  Heavy precipitations  Wind > 20 kt
SIGMETs :     Misc.  Thunderstorms  Icing  Turbulence  Mountain Waves  Volcanic Ashes






- Airport Elevation : 202 ft
- IATA code : LGW


EGKK - London Gatwick

CURRENT METAR :
  • 072050Z VRB01KT CAVOK 10/03 Q1027

EXPIRED METARs :
  • 072020Z VRB01KT CAVOK 11/03 Q1027
  • 071950Z 09002KT CAVOK 13/02 Q1027
  • 071920Z 07002KT CAVOK 14/02 Q1027
  • 071850Z 15002KT CAVOK 15/01 Q1027
  • 071820Z 17002KT CAVOK 16/01 Q1027

TAF TAF EGKK
Valid from the 07 at 18:00 until the 09 at 00:00 UTC


071658Z 0718/0824 10004KT 9999 FEW045
BECMG 0800/0803 6000
PROB30 0803/0808 0600 FG BKN000
BECMG 0807/0810 9999
PROB30
TEMPO 0812/0819 7000 SHRA



MET'MAP, your aeronautical weather chart ! - Copyright ORBIFLY December 2007 - Disclaimer

ORBIFLY MET'MAP TEAM :

Programming & Development : Alexandra Zaïnal
Concept & original design : Baudouin d'Aumeries
Assistance for programming : Marc-Olivier Méhu
Technical & hardware support : Manuel Goepfert

Contact : metmap@orbifly.com




SOURCES & CREDITS :

   NOAA